createdAt,value
2023-05-09T00:01:45.264Z,16.70
2023-05-09T00:04:11.815Z,19.17
2023-05-09T00:06:38.375Z,14.37
2023-05-09T00:09:05.147Z,12.63
2023-05-09T00:11:31.639Z,16.47
2023-05-09T00:13:58.518Z,14.03
2023-05-09T00:16:26.344Z,18.97
2023-05-09T00:18:52.913Z,14.07
2023-05-09T00:21:19.565Z,14.07
2023-05-09T00:23:46.974Z,15.27
2023-05-09T00:26:13.411Z,13.47
2023-05-09T00:28:39.854Z,20.77
2023-05-09T00:31:06.813Z,18.13
2023-05-09T00:33:33.286Z,20.57
2023-05-09T00:35:59.833Z,15.53
2023-05-09T00:38:26.390Z,16.13
2023-05-09T00:40:52.842Z,17.07
2023-05-09T00:43:19.276Z,14.93
2023-05-09T00:45:45.967Z,13.57
2023-05-09T00:48:12.668Z,20.70
2023-05-09T00:50:39.249Z,14.47
2023-05-09T00:53:05.962Z,19.90
2023-05-09T00:55:32.463Z,15.30
2023-05-09T00:57:59.047Z,15.13
2023-05-09T01:00:25.867Z,18.57
2023-05-09T01:02:54.971Z,17.27
2023-05-09T01:05:23.075Z,10.27
2023-05-09T01:08:10.728Z,11.63
2023-05-09T01:10:44.111Z,10.67
2023-05-09T01:13:23.641Z,15.07
2023-05-09T01:15:58.145Z,14.93
2023-05-09T01:18:36.294Z,12.77
2023-05-09T01:21:08.916Z,11.80
2023-05-09T01:23:47.290Z,13.50
2023-05-09T01:26:32.090Z,12.40
2023-05-09T01:29:17.937Z,11.67
2023-05-09T01:31:45.456Z,12.63
2023-05-09T01:34:13.002Z,16.07
2023-05-09T01:36:42.557Z,19.97
2023-05-09T01:39:12.607Z,16.73
2023-05-09T01:41:39.135Z,12.80
2023-05-09T01:44:08.493Z,14.13
2023-05-09T01:46:36.125Z,13.63
2023-05-09T01:49:03.296Z,16.00
2023-05-09T01:51:31.651Z,14.73
2023-05-09T01:53:59.328Z,15.23
2023-05-09T01:56:26.407Z,16.73
2023-05-09T01:58:53.883Z,20.47
2023-05-09T02:01:21.107Z,20.77
2023-05-09T02:03:50.736Z,21.47
2023-05-09T02:06:17.474Z,18.20
2023-05-09T02:08:44.109Z,18.80
2023-05-09T02:11:10.589Z,17.73
2023-05-09T02:13:38.403Z,18.73
2023-05-09T02:16:08.329Z,19.70
2023-05-09T02:18:35.453Z,20.17
2023-05-09T02:21:02.619Z,19.90
2023-05-09T02:23:29.401Z,18.00
2023-05-09T02:25:56.035Z,20.90
2023-05-09T02:28:23.222Z,14.43
2023-05-09T02:30:50.562Z,14.70
2023-05-09T02:33:17.216Z,16.43
2023-05-09T02:35:46.434Z,15.67
2023-05-09T02:38:15.371Z,17.63
2023-05-09T02:40:43.469Z,16.00
2023-05-09T02:43:10.468Z,21.33
2023-05-09T02:45:37.163Z,20.20
2023-05-09T02:48:05.150Z,16.70
2023-05-09T02:50:33.428Z,18.00
2023-05-09T02:52:59.880Z,18.17
2023-05-09T02:55:26.713Z,17.80
2023-05-09T02:58:05.377Z,17.83
2023-05-09T03:00:39.074Z,13.27
2023-05-09T03:03:05.817Z,15.00
2023-05-09T03:05:32.428Z,14.27
2023-05-09T03:07:58.903Z,12.83
2023-05-09T03:10:25.398Z,15.77
2023-05-09T03:12:51.906Z,16.77
2023-05-09T03:15:18.467Z,13.67
2023-05-09T03:17:45.069Z,17.07
2023-05-09T03:20:11.641Z,19.03
2023-05-09T03:22:38.275Z,17.97
2023-05-09T03:25:05.098Z,16.07
2023-05-09T03:27:31.600Z,17.90
2023-05-09T03:29:58.066Z,15.37
2023-05-09T03:32:24.675Z,18.57
2023-05-09T03:34:51.145Z,14.10
2023-05-09T03:37:17.844Z,16.63
2023-05-09T03:39:44.350Z,17.83
2023-05-09T03:42:10.864Z,13.13
2023-05-09T03:44:37.376Z,22.37
2023-05-09T03:47:03.998Z,17.43
2023-05-09T03:49:30.669Z,13.40
2023-05-09T03:51:57.143Z,14.83
2023-05-09T03:54:23.611Z,17.13
2023-05-09T03:56:50.209Z,15.93
2023-05-09T03:59:16.727Z,20.13
2023-05-09T04:01:43.299Z,15.27
2023-05-09T04:04:09.810Z,18.67
2023-05-09T04:06:36.393Z,17.63
2023-05-09T04:09:02.933Z,14.43
2023-05-09T04:11:29.440Z,21.10
2023-05-09T04:13:55.978Z,16.20
2023-05-09T04:16:22.603Z,14.90
2023-05-09T04:18:49.110Z,15.83
2023-05-09T04:21:15.729Z,17.47
2023-05-09T04:23:43.649Z,17.73
2023-05-09T04:26:12.234Z,12.57
2023-05-09T04:28:38.967Z,25.90
2023-05-09T04:31:06.563Z,19.57
2023-05-09T04:33:33.112Z,15.33
2023-05-09T04:35:59.636Z,26.47
2023-05-09T04:38:26.182Z,24.57
2023-05-09T04:40:52.703Z,22.30
2023-05-09T04:43:19.261Z,15.73
2023-05-09T04:45:46.533Z,19.90
2023-05-09T04:48:13.083Z,14.97
2023-05-09T04:50:41.470Z,24.70
2023-05-09T04:53:08.365Z,22.17
2023-05-09T04:55:35.722Z,23.50
2023-05-09T04:58:02.228Z,24.17
2023-05-09T05:00:28.952Z,18.43
2023-05-09T05:02:55.558Z,22.37
2023-05-09T05:05:25.105Z,15.63
2023-05-09T05:07:53.447Z,17.43
2023-05-09T05:10:19.907Z,23.50
2023-05-09T05:12:46.508Z,17.80
2023-05-09T05:15:13.329Z,19.03
2023-05-09T05:17:39.973Z,22.73
2023-05-09T05:20:08.334Z,16.60
2023-05-09T05:22:35.780Z,14.00
2023-05-09T05:25:03.751Z,24.33
2023-05-09T05:27:30.674Z,20.40
2023-05-09T05:29:57.147Z,15.40
2023-05-09T05:32:23.635Z,20.10
2023-05-09T05:34:50.155Z,13.80
2023-05-09T05:37:16.956Z,11.23
2023-05-09T05:39:43.447Z,12.87
2023-05-09T05:42:10.033Z,12.53
2023-05-09T05:44:36.588Z,13.40
2023-05-09T05:47:03.286Z,16.73
2023-05-09T05:49:29.793Z,12.20
2023-05-09T05:51:56.431Z,20.80
2023-05-09T05:54:22.946Z,12.93
2023-05-09T05:56:49.652Z,11.43
2023-05-09T05:59:16.313Z,10.80
2023-05-09T06:01:43.211Z,23.97
2023-05-09T06:04:10.046Z,9.67
2023-05-09T06:06:36.736Z,9.50
2023-05-09T06:09:03.304Z,9.27
2023-05-09T06:11:29.908Z,6.87
2023-05-09T06:13:56.512Z,13.50
2023-05-09T06:16:23.078Z,12.17
2023-05-09T06:18:49.740Z,8.60
2023-05-09T06:21:16.396Z,9.47
2023-05-09T06:23:57.808Z,8.53
2023-05-09T06:26:29.854Z,9.77
2023-05-09T06:28:56.495Z,8.10
2023-05-09T06:31:25.407Z,7.97
2023-05-09T06:33:52.578Z,11.40
2023-05-09T06:36:19.042Z,7.53
2023-05-09T06:38:45.632Z,13.23
2023-05-09T06:41:12.080Z,8.33
2023-05-09T06:43:38.679Z,8.83
2023-05-09T06:46:05.252Z,7.33
2023-05-09T06:48:31.855Z,11.63
2023-05-09T06:50:58.295Z,5.57
2023-05-09T06:53:24.797Z,10.70
2023-05-09T06:55:51.342Z,10.00
2023-05-09T06:58:17.817Z,8.70
2023-05-09T07:00:44.278Z,7.17
2023-05-09T07:03:11.714Z,10.13
2023-05-09T07:05:38.357Z,8.07
2023-05-09T07:08:05.008Z,9.30
2023-05-09T07:10:31.838Z,7.80
2023-05-09T07:12:58.590Z,7.80
2023-05-09T07:15:39.598Z,6.97
2023-05-09T07:18:08.570Z,9.23
2023-05-09T07:20:35.257Z,8.43
2023-05-09T07:23:04.028Z,11.73
2023-05-09T07:25:30.788Z,11.07
2023-05-09T07:27:58.629Z,11.07
2023-05-09T07:30:25.427Z,9.80
2023-05-09T07:32:52.300Z,6.53
2023-05-09T07:35:19.720Z,10.83
2023-05-09T07:37:46.525Z,8.83
2023-05-09T07:40:13.699Z,7.93
2023-05-09T07:42:40.970Z,6.10
2023-05-09T07:45:07.831Z,5.37
2023-05-09T07:47:34.790Z,7.87
2023-05-09T07:50:01.406Z,3.90
2023-05-09T07:52:28.012Z,5.97
2023-05-09T07:54:54.661Z,4.37
2023-05-09T07:57:21.227Z,3.67
2023-05-09T07:59:47.740Z,8.10
2023-05-09T08:02:14.306Z,5.20
2023-05-09T08:04:41.731Z,4.50
2023-05-09T08:07:09.112Z,5.43
2023-05-09T08:09:35.909Z,4.10
2023-05-09T08:12:02.538Z,4.27
2023-05-09T08:14:29.744Z,4.30
2023-05-09T08:16:56.336Z,3.97
2023-05-09T08:19:26.045Z,3.57
2023-05-09T08:21:53.092Z,6.20
2023-05-09T08:24:20.198Z,7.53
2023-05-09T08:26:46.941Z,7.80
2023-05-09T08:29:13.475Z,4.90
2023-05-09T08:31:40.112Z,8.60
2023-05-09T08:34:06.650Z,5.00
2023-05-09T08:36:33.853Z,4.23
2023-05-09T08:39:00.398Z,2.90
2023-05-09T08:41:30.139Z,5.43
2023-05-09T08:43:56.760Z,3.67
2023-05-09T08:46:34.506Z,3.73
2023-05-09T08:49:01.600Z,4.00
2023-05-09T08:51:30.099Z,7.77
2023-05-09T08:53:56.831Z,5.10
2023-05-09T08:56:23.777Z,3.10
2023-05-09T08:58:50.325Z,6.90
2023-05-09T09:01:17.605Z,5.20
2023-05-09T09:03:47.722Z,4.27
2023-05-09T09:06:14.434Z,3.60
2023-05-09T09:08:42.035Z,6.20
2023-05-09T09:11:12.358Z,5.13
2023-05-09T09:13:40.928Z,7.87
2023-05-09T09:16:16.541Z,5.50
2023-05-09T09:18:43.627Z,3.10
2023-05-09T09:21:12.492Z,6.90
2023-05-09T09:23:43.226Z,4.80
2023-05-09T09:26:10.024Z,4.27
2023-05-09T09:28:36.557Z,10.90
2023-05-09T09:31:22.083Z,10.80
2023-05-09T09:33:48.866Z,3.57
2023-05-09T09:36:15.532Z,5.30
2023-05-09T09:38:46.268Z,8.07
2023-05-09T09:41:13.348Z,4.80
2023-05-09T09:43:45.747Z,4.60
2023-05-09T09:46:14.006Z,7.27
2023-05-09T09:48:40.528Z,7.00
2023-05-09T09:51:11.200Z,7.57
2023-05-09T09:53:41.976Z,3.27
2023-05-09T09:56:09.105Z,7.03
2023-05-09T09:58:35.838Z,5.30
2023-05-09T10:01:16.551Z,4.00
2023-05-09T10:03:47.935Z,4.23
2023-05-09T10:06:16.020Z,4.23
2023-05-09T10:08:47.211Z,5.43
2023-05-09T10:11:14.023Z,5.70
2023-05-09T10:13:40.624Z,3.90
2023-05-09T10:16:09.548Z,4.73
2023-05-09T10:18:36.348Z,4.27
2023-05-09T10:21:05.065Z,3.53
2023-05-09T10:23:33.355Z,5.60
2023-05-09T10:26:19.947Z,2.80
2023-05-09T10:28:49.036Z,9.00
2023-05-09T10:31:29.237Z,8.20
2023-05-09T10:33:56.385Z,2.73
2023-05-09T10:36:23.979Z,6.57
2023-05-09T10:38:53.804Z,7.23
2023-05-09T10:41:21.988Z,5.07
2023-05-09T10:43:48.796Z,4.33
2023-05-09T10:46:15.987Z,4.83
2023-05-09T10:48:43.161Z,3.50
2023-05-09T10:51:10.355Z,4.27
2023-05-09T10:53:50.111Z,3.43
2023-05-09T10:56:30.162Z,4.40
2023-05-09T10:58:57.414Z,2.87
2023-05-09T11:01:38.898Z,7.30
2023-05-09T11:04:17.016Z,6.33
2023-05-09T11:06:43.937Z,9.97
2023-05-09T11:09:27.120Z,3.37
2023-05-09T11:11:56.566Z,7.70
2023-05-09T11:14:51.603Z,3.80
2023-05-09T11:17:20.916Z,6.30
2023-05-09T11:19:47.454Z,5.93
2023-05-09T11:22:21.156Z,4.93
2023-05-09T11:24:50.018Z,6.37
2023-05-09T11:27:24.094Z,7.53
2023-05-09T11:29:52.001Z,6.63
2023-05-09T11:32:19.324Z,3.77
2023-05-09T11:34:46.149Z,5.97
2023-05-09T11:37:15.391Z,9.03
2023-05-09T11:40:03.019Z,3.97
2023-05-09T11:42:29.835Z,4.83
2023-05-09T11:44:57.478Z,4.33
2023-05-09T11:47:24.636Z,3.60
2023-05-09T11:49:51.807Z,6.00
2023-05-09T11:52:21.896Z,6.97
2023-05-09T11:54:49.567Z,7.80
2023-05-09T11:57:19.238Z,6.87
2023-05-09T11:59:45.853Z,4.83
2023-05-09T12:02:13.149Z,3.97
2023-05-09T12:04:40.042Z,9.00
2023-05-09T12:07:06.837Z,2.47
2023-05-09T12:09:34.483Z,3.20
2023-05-09T12:12:01.281Z,2.97
2023-05-09T12:14:29.633Z,6.10
2023-05-09T12:16:56.241Z,5.10
2023-05-09T12:19:24.540Z,9.20
2023-05-09T12:22:01.296Z,7.80
2023-05-09T12:24:29.077Z,5.83
2023-05-09T12:26:57.082Z,6.43
2023-05-09T12:29:24.970Z,3.63
2023-05-09T12:31:53.472Z,7.27
2023-05-09T12:34:20.398Z,5.30
2023-05-09T12:36:53.760Z,2.20
2023-05-09T12:39:24.476Z,5.47
2023-05-09T12:42:01.177Z,3.53
2023-05-09T12:44:29.627Z,7.07
2023-05-09T12:47:03.749Z,4.73
2023-05-09T12:49:31.498Z,4.90
2023-05-09T12:52:01.093Z,6.83
2023-05-09T12:54:29.736Z,3.70
2023-05-09T12:56:57.320Z,4.60
2023-05-09T12:59:28.335Z,6.47
2023-05-09T13:01:59.547Z,6.73
2023-05-09T13:04:28.014Z,4.20
2023-05-09T13:06:56.077Z,5.23
2023-05-09T13:09:26.196Z,7.07
2023-05-09T13:11:53.145Z,2.77
2023-05-09T13:14:23.100Z,3.33
2023-05-09T13:16:49.618Z,5.60
2023-05-09T13:19:16.844Z,3.47
2023-05-09T13:21:43.397Z,3.27
2023-05-09T13:24:09.987Z,4.77
2023-05-09T13:26:36.684Z,5.70
2023-05-09T13:29:03.441Z,6.73
2023-05-09T13:31:30.827Z,4.70
2023-05-09T13:33:57.325Z,4.53
2023-05-09T13:36:23.983Z,9.60
2023-05-09T13:38:50.566Z,4.65
2023-05-09T13:41:20.839Z,7.67
2023-05-09T13:43:47.745Z,4.90
2023-05-09T13:46:14.506Z,4.73
2023-05-09T13:48:41.916Z,4.33
2023-05-09T13:51:08.804Z,3.03
2023-05-09T13:53:37.395Z,2.60
2023-05-09T13:56:09.694Z,3.00
2023-05-09T13:58:36.456Z,6.80
2023-05-09T14:01:03.232Z,7.90
2023-05-09T14:03:29.938Z,4.30
2023-05-09T14:05:56.532Z,2.87
2023-05-09T14:08:23.227Z,5.43
2023-05-09T14:10:49.782Z,9.13
2023-05-09T14:13:16.311Z,2.83
2023-05-09T14:15:42.995Z,5.17
2023-05-09T14:18:09.839Z,3.77
2023-05-09T14:20:37.763Z,5.20
2023-05-09T14:23:04.558Z,4.63
2023-05-09T14:25:31.664Z,3.27
2023-05-09T14:27:59.543Z,5.40
2023-05-09T14:30:26.675Z,6.50
2023-05-09T14:32:53.346Z,2.70
2023-05-09T14:35:19.970Z,5.03
2023-05-09T14:37:46.533Z,6.57
2023-05-09T14:40:13.359Z,5.37
2023-05-09T14:42:40.655Z,2.60
2023-05-09T14:45:10.524Z,4.50
2023-05-09T14:47:37.227Z,5.37
2023-05-09T14:50:04.491Z,5.13
2023-05-09T14:52:31.044Z,4.13
2023-05-09T14:54:59.642Z,3.77
2023-05-09T14:57:26.468Z,6.53
2023-05-09T14:59:53.154Z,5.90
2023-05-09T15:02:19.852Z,4.77
2023-05-09T15:04:46.409Z,4.17
2023-05-09T15:07:13.379Z,2.90
2023-05-09T15:09:40.167Z,3.63
2023-05-09T15:12:06.930Z,7.00
2023-05-09T15:14:33.524Z,2.80
2023-05-09T15:17:03.646Z,5.80
2023-05-09T15:19:31.694Z,6.10
2023-05-09T15:21:59.154Z,3.43
2023-05-09T15:24:26.146Z,4.67
2023-05-09T15:26:53.637Z,2.70
2023-05-09T15:29:21.679Z,4.53
2023-05-09T15:31:48.856Z,5.67
2023-05-09T15:34:15.616Z,7.77
2023-05-09T15:36:42.164Z,3.30
2023-05-09T15:39:08.795Z,6.67
2023-05-09T15:41:35.437Z,6.70
2023-05-09T15:44:01.976Z,6.70
2023-05-09T15:46:29.690Z,5.47
2023-05-09T15:48:57.354Z,8.37
2023-05-09T15:51:24.639Z,3.37
2023-05-09T15:53:51.274Z,2.37
2023-05-09T15:56:17.886Z,4.10
2023-05-09T15:58:44.453Z,5.40
2023-05-09T16:01:13.045Z,6.77
2023-05-09T16:03:39.925Z,7.37
2023-05-09T16:06:07.149Z,8.33
2023-05-09T16:08:33.699Z,3.47
2023-05-09T16:11:01.866Z,6.20
2023-05-09T16:13:29.812Z,3.70
2023-05-09T16:15:56.906Z,5.13
2023-05-09T16:18:23.608Z,4.97
2023-05-09T16:20:50.515Z,5.80
2023-05-09T16:23:17.510Z,4.37
2023-05-09T16:25:44.979Z,4.17
2023-05-09T16:28:11.594Z,3.73
2023-05-09T16:30:38.067Z,4.80
2023-05-09T16:33:05.783Z,7.23
2023-05-09T16:35:32.248Z,5.67
2023-05-09T16:37:58.771Z,9.57
2023-05-09T16:40:25.360Z,9.60
2023-05-09T16:42:53.279Z,4.27
2023-05-09T16:45:19.754Z,7.07
2023-05-09T16:47:46.219Z,6.33
2023-05-09T16:50:12.981Z,5.47
2023-05-09T16:52:39.519Z,7.23
2023-05-09T16:55:06.460Z,7.43
2023-05-09T16:57:33.348Z,3.53
2023-05-09T16:59:59.861Z,3.53
2023-05-09T17:02:26.475Z,4.00
2023-05-09T17:04:53.085Z,2.77
2023-05-09T17:07:20.050Z,4.87
2023-05-09T17:09:48.335Z,4.33
2023-05-09T17:12:18.036Z,4.80
2023-05-09T17:14:45.570Z,3.77
2023-05-09T17:17:13.038Z,6.00
2023-05-09T17:19:39.615Z,6.33
2023-05-09T17:22:07.792Z,8.03
2023-05-09T17:24:34.417Z,9.17
2023-05-09T17:27:00.951Z,10.73
2023-05-09T17:29:29.199Z,10.70
2023-05-09T17:32:00.725Z,6.20
2023-05-09T17:34:28.255Z,8.32
2023-05-09T17:36:54.765Z,6.17
2023-05-09T17:39:22.049Z,4.67
2023-05-09T17:41:48.512Z,4.93
2023-05-09T17:44:15.591Z,7.18
2023-05-09T17:46:42.384Z,6.70
2023-05-09T17:49:10.896Z,7.60
2023-05-09T17:51:37.434Z,5.37
2023-05-09T17:54:05.410Z,7.03
2023-05-09T17:56:31.972Z,6.93
2023-05-09T17:59:01.555Z,14.63
2023-05-09T18:01:28.545Z,14.67
2023-05-09T18:03:55.168Z,13.93
2023-05-09T18:06:21.662Z,4.77
2023-05-09T18:08:48.420Z,4.33
2023-05-09T18:11:15.180Z,4.10
2023-05-09T18:13:41.690Z,6.03
2023-05-09T18:16:08.448Z,10.80
2023-05-09T18:18:36.437Z,11.33
2023-05-09T18:21:04.925Z,6.47
2023-05-09T18:23:31.546Z,11.97
2023-05-09T18:25:58.337Z,9.07
2023-05-09T18:28:25.971Z,7.10
2023-05-09T18:30:56.612Z,5.80
2023-05-09T18:33:24.191Z,9.07
2023-05-09T18:35:51.027Z,9.17
2023-05-09T18:38:17.532Z,9.97
2023-05-09T18:40:44.050Z,6.33
2023-05-09T18:43:10.796Z,9.33
2023-05-09T18:45:37.594Z,14.13
2023-05-09T18:48:04.695Z,10.20
2023-05-09T18:50:31.469Z,14.87
2023-05-09T18:52:58.686Z,11.00
2023-05-09T18:55:25.190Z,10.40
2023-05-09T18:57:51.918Z,11.10
2023-05-09T19:00:18.477Z,7.37
2023-05-09T19:02:44.976Z,9.57
2023-05-09T19:05:11.583Z,9.33
2023-05-09T19:07:38.715Z,10.27
2023-05-09T19:10:08.177Z,12.43
2023-05-09T19:12:37.802Z,7.37
2023-05-09T19:15:05.390Z,9.37
2023-05-09T19:17:31.914Z,11.47
2023-05-09T19:19:58.597Z,9.10
2023-05-09T19:22:25.446Z,16.03
2023-05-09T19:24:52.049Z,10.73
2023-05-09T19:27:19.077Z,10.30
2023-05-09T19:29:46.909Z,7.90
2023-05-09T19:32:14.557Z,7.10
2023-05-09T19:34:41.033Z,9.00
2023-05-09T19:37:07.628Z,9.87
2023-05-09T19:39:34.202Z,7.73
2023-05-09T19:42:00.933Z,10.23
2023-05-09T19:44:27.673Z,7.97
2023-05-09T19:46:57.424Z,10.43
2023-05-09T19:49:24.093Z,11.70
2023-05-09T19:51:50.648Z,9.03
2023-05-09T19:54:17.686Z,7.73
2023-05-09T19:56:44.223Z,5.87
2023-05-09T19:59:10.725Z,10.53
2023-05-09T20:01:37.947Z,6.97
2023-05-09T20:04:04.616Z,8.77
2023-05-09T20:06:31.384Z,9.63
2023-05-09T20:08:57.980Z,8.23
2023-05-09T20:11:24.527Z,7.13
2023-05-09T20:13:51.760Z,9.90
2023-05-09T20:16:19.837Z,7.40
2023-05-09T20:18:46.364Z,10.53
2023-05-09T20:21:13.390Z,11.27
2023-05-09T20:23:39.890Z,8.23
2023-05-09T20:26:06.515Z,7.33
2023-05-09T20:28:33.288Z,12.03
2023-05-09T20:30:59.698Z,23.10
2023-05-09T20:33:26.171Z,7.10
2023-05-09T20:35:52.548Z,12.40
2023-05-09T20:38:19.551Z,9.77
2023-05-09T20:40:45.965Z,7.93
2023-05-09T20:43:12.464Z,9.70
2023-05-09T20:45:39.167Z,11.47
2023-05-09T20:48:06.575Z,8.33
2023-05-09T20:50:33.041Z,12.03
2023-05-09T20:52:59.527Z,12.83
2023-05-09T20:55:25.936Z,9.43
2023-05-09T20:57:52.439Z,10.53
2023-05-09T21:00:19.102Z,11.63
2023-05-09T21:02:45.826Z,10.03
2023-05-09T21:05:12.283Z,9.93
2023-05-09T21:07:38.701Z,9.40
2023-05-09T21:10:05.818Z,16.20
2023-05-09T21:12:32.720Z,8.10
2023-05-09T21:14:59.115Z,9.63
2023-05-09T21:17:25.663Z,7.67
2023-05-09T21:19:52.233Z,10.63
2023-05-09T21:22:18.671Z,10.23
2023-05-09T21:24:45.295Z,10.33
2023-05-09T21:27:11.698Z,8.50
2023-05-09T21:29:38.103Z,11.73
2023-05-09T21:32:04.671Z,8.87
2023-05-09T21:34:31.160Z,8.40
2023-05-09T21:36:57.589Z,7.00
2023-05-09T21:39:24.026Z,11.93
2023-05-09T21:41:50.556Z,9.57
2023-05-09T21:44:17.117Z,12.00
2023-05-09T21:46:46.130Z,11.00
2023-05-09T21:49:12.956Z,14.73
2023-05-09T21:51:39.370Z,14.27
2023-05-09T21:54:06.229Z,11.57
2023-05-09T21:56:32.634Z,9.20
2023-05-09T21:58:59.058Z,8.90
2023-05-09T22:01:25.476Z,6.40
2023-05-09T22:03:52.162Z,11.90
2023-05-09T22:06:18.769Z,9.07
2023-05-09T22:08:45.326Z,10.23
2023-05-09T22:11:14.201Z,7.77
2023-05-09T22:13:41.256Z,10.43
2023-05-09T22:16:07.840Z,10.47
2023-05-09T22:18:34.269Z,10.60
2023-05-09T22:21:00.850Z,8.23
2023-05-09T22:23:27.326Z,9.67
2023-05-09T22:25:53.742Z,9.43
2023-05-09T22:28:20.301Z,12.63
2023-05-09T22:30:47.004Z,12.17
2023-05-09T22:33:13.694Z,10.90
2023-05-09T22:35:40.182Z,11.20
2023-05-09T22:38:06.634Z,8.13
2023-05-09T22:40:33.893Z,12.87
2023-05-09T22:43:00.329Z,13.00
2023-05-09T22:45:26.793Z,9.53
2023-05-09T22:47:53.277Z,14.80
2023-05-09T22:50:19.733Z,10.17
2023-05-09T22:52:46.213Z,11.37
2023-05-09T22:55:12.705Z,11.27
2023-05-09T22:57:40.033Z,11.63
2023-05-09T23:00:07.166Z,9.80
2023-05-09T23:02:33.704Z,13.37
2023-05-09T23:05:00.194Z,8.73
2023-05-09T23:07:26.630Z,11.17
2023-05-09T23:09:53.123Z,10.20
2023-05-09T23:12:19.640Z,7.27
2023-05-09T23:14:46.659Z,9.87
2023-05-09T23:17:13.175Z,12.07
2023-05-09T23:19:39.685Z,11.00
2023-05-09T23:22:06.210Z,10.77
2023-05-09T23:24:32.740Z,8.97
2023-05-09T23:26:59.160Z,8.73
2023-05-09T23:29:25.666Z,10.47
2023-05-09T23:31:52.118Z,11.60
2023-05-09T23:34:18.607Z,9.43
2023-05-09T23:36:45.217Z,11.47
2023-05-09T23:39:12.082Z,11.97
2023-05-09T23:41:38.543Z,11.93
2023-05-09T23:44:06.155Z,9.70
2023-05-09T23:46:32.638Z,11.30
2023-05-09T23:48:59.136Z,8.87
2023-05-09T23:51:26.111Z,12.67
2023-05-09T23:53:52.551Z,8.97
2023-05-09T23:56:19.018Z,8.67
2023-05-09T23:58:45.578Z,8.27
